PWSweather.com
Personal Weather Stations
Station Observations
SHAHALMS1
Eftra, Falkenberg, HA

EftraFalkenberg, HA

Lat: 56.85, Lon: 12.65

Elevation: 140

Station Type:

http://hem.passagen.se/risarp101

High Low Average
Temperature 62.8°F17.1°C 54.3°F12.4°C 58.5°F14.7°C
Dew Point 62.6°F17.0°C 49.2°F9.6°C 55.7°F13.2°C
Winds 6.9 mph 11.1 kmh Calm Calm 2.0 mph SW3.2 kmh SW
Wind Gusts 19.7 mph31.7 kmh -- 7.0 mph11.3 kmh
Humidity 100% 70% 91%
Pressure 29.86 in1011.2 mb 29.53 in1000.0 mb -
Precipitation 0.86 in21.8 mm - -
Hour Temp Dew Point Humidity Winds Wind Gusts Pressure Precip Precip Rate Daily Precip Total
12:00 AM 56.7°F13.7°C 55.8°F13.2°C 97% 0.3 mph E0.5 kmh E 3.2 mph5.1 kmh 29.62 in1003.0 mb 0.04 in1.0 mm 0.00 in0.0 mm 0.04 in1.0 mm
12:15 AM 56.8°F13.8°C 56.0°F13.3°C 97% 3.6 mph E5.8 kmh E 6.8 mph10.9 kmh 29.62 in1003.0 mb 0.18 in4.6 mm 0.56 in14.2 mm 0.18 in4.6 mm
12:31 AM 56.8°F13.8°C 56.0°F13.3°C 97% 3.6 mph E5.8 kmh E 10.4 mph16.7 kmh 29.62 in1003.0 mb 0.45 in11.4 mm 1.01 in25.7 mm 0.49 in12.4 mm
12:45 AM 56.8°F13.8°C 56.0°F13.3°C 97% 5.6 mph E9.0 kmh E 12.2 mph19.6 kmh 29.62 in1003.0 mb 0.59 in15.0 mm 0.60 in15.2 mm 0.64 in16.3 mm
01:00 AM 57.0°F13.9°C 56.2°F13.4°C 97% 4.5 mph E7.2 kmh E 8.9 mph14.3 kmh 29.62 in1003.0 mb 0.64 in16.3 mm 0.07 in1.8 mm 0.68 in17.3 mm
01:15 AM 57.0°F13.9°C 56.2°F13.4°C 97% 6.4 mph E10.3 kmh E 16.8 mph27.0 kmh 29.59 in1002.0 mb 0.55 in14.0 mm 0.00 in0.0 mm 0.73 in18.5 mm
01:30 AM 57.0°F13.9°C 56.2°F13.4°C 97% 5.1 mph E8.2 kmh E 16.5 mph26.6 kmh 29.59 in1002.0 mb 0.28 in7.1 mm 0.00 in0.0 mm 0.77 in19.6 mm
01:45 AM 57.2°F14.0°C 56.4°F13.6°C 97% 6.8 mph E10.9 kmh E 12.9 mph20.8 kmh 29.56 in1001.0 mb 0.13 in3.3 mm 0.00 in0.0 mm 0.77 in19.6 mm
02:00 AM 57.6°F14.2°C 57.6°F14.2°C 100% 5.4 mph E8.7 kmh E 13.6 mph21.9 kmh 29.56 in1001.0 mb 0.14 in3.6 mm 0.01 in0.3 mm 0.82 in20.8 mm
02:15 AM 57.7°F14.3°C 57.7°F14.3°C 100% 5.0 mph E8.0 kmh E 11.8 mph19.0 kmh 29.56 in1001.0 mb 0.10 in2.5 mm 0.00 in0.0 mm 0.82 in20.8 mm
02:45 AM 58.5°F14.7°C 58.5°F14.7°C 100% 2.2 mph E3.5 kmh E 6.1 mph9.8 kmh 29.56 in1001.0 mb 0.06 in1.5 mm 0.00 in0.0 mm 0.82 in20.8 mm
03:00 AM 58.6°F14.8°C 58.6°F14.8°C 100% 0.6 mph E1.0 kmh E 3.9 mph6.3 kmh 29.53 in1000.0 mb 0.00 in0.0 mm 0.00 in0.0 mm 0.82 in20.8 mm
03:15 AM 58.8°F14.9°C 58.8°F14.9°C 100% 2.4 mph E3.9 kmh E 5.7 mph9.2 kmh 29.56 in1001.0 mb 0.03 in0.8 mm 0.12 in3.0 mm 0.86 in21.8 mm
03:30 AM 59.0°F15.0°C 59.0°F15.0°C 100% 1.3 mph E2.1 kmh E 6.4 mph10.3 kmh 29.56 in1001.0 mb 0.03 in0.8 mm 0.00 in0.0 mm 0.86 in21.8 mm
03:45 AM 59.0°F15.0°C 59.0°F15.0°C 100% 0.4 mph NW0.6 kmh NW 4.7 mph7.6 kmh 29.56 in1001.0 mb 0.03 in0.8 mm 0.00 in0.0 mm 0.86 in21.8 mm
04:00 AM 58.8°F14.9°C 58.8°F14.9°C 100% 0.2 mph NW0.3 kmh NW 3.9 mph6.3 kmh 29.56 in1001.0 mb 0.03 in0.8 mm 0.00 in0.0 mm 0.86 in21.8 mm
04:15 AM 58.3°F14.6°C 58.3°F14.6°C 100% 0.9 mph NW1.4 kmh NW 3.9 mph6.3 kmh 29.56 in1001.0 mb 0.00 in0.0 mm 0.00 in0.0 mm 0.86 in21.8 mm
04:30 AM 58.1°F14.5°C 58.1°F14.5°C 100% 0.4 mph W0.6 kmh W 3.6 mph5.8 kmh 29.56 in1001.0 mb 0.00 in0.0 mm 0.00 in0.0 mm 0.86 in21.8 mm
04:45 AM 58.1°F14.5°C 58.1°F14.5°C 100% 0.1 mph WNW0.2 kmh WNW 1.4 mph2.3 kmh 29.56 in1001.0 mb 0.00 in0.0 mm 0.00 in0.0 mm 0.86 in21.8 mm
05:00 AM 57.9°F14.4°C 57.9°F14.4°C 100% Calm Calm -- 29.56 in1001.0 mb 0.00 in0.0 mm 0.00 in0.0 mm 0.86 in21.8 mm
05:15 AM 57.7°F14.3°C 57.7°F14.3°C 100% 0.7 mph N1.1 kmh N 5.7 mph9.2 kmh 29.56 in1001.0 mb 0.00 in0.0 mm 0.00 in0.0 mm 0.86 in21.8 mm
05:30 AM 57.7°F14.3°C 57.7°F14.3°C 100% Calm Calm -- 29.56 in1001.0 mb 0.00 in0.0 mm 0.00 in0.0 mm 0.86 in21.8 mm
05:45 AM 57.7°F14.3°C 57.7°F14.3°C 100% Calm Calm -- 29.56 in1001.0 mb 0.00 in0.0 mm 0.00 in0.0 mm 0.86 in21.8 mm
06:00 AM 57.9°F14.4°C 57.9°F14.4°C 100% Calm Calm -- 29.56 in1001.0 mb 0.00 in0.0 mm 0.00 in0.0 mm 0.86 in21.8 mm
06:15 AM 57.9°F14.4°C 57.9°F14.4°C 100% Calm Calm -- 29.56 in1001.0 mb 0.00 in0.0 mm 0.00 in0.0 mm 0.86 in21.8 mm
06:30 AM 58.1°F14.5°C 58.1°F14.5°C 100% Calm Calm -- 29.53 in1000.0 mb 0.00 in0.0 mm 0.00 in0.0 mm 0.86 in21.8 mm
06:45 AM 57.9°F14.4°C 57.9°F14.4°C 100% Calm Calm -- 29.56 in1001.0 mb 0.00 in0.0 mm 0.00 in0.0 mm 0.86 in21.8 mm
07:00 AM 57.9°F14.4°C 57.9°F14.4°C 100% Calm Calm -- 29.56 in1001.0 mb 0.00 in0.0 mm 0.00 in0.0 mm 0.86 in21.8 mm
07:15 AM 57.9°F14.4°C 57.9°F14.4°C 100% 0.4 mph N0.6 kmh N 5.4 mph8.7 kmh 29.56 in1001.0 mb 0.00 in0.0 mm 0.00 in0.0 mm 0.86 in21.8 mm
07:30 AM 58.1°F14.5°C 58.1°F14.5°C 100% Calm Calm -- 29.56 in1001.0 mb 0.00 in0.0 mm 0.00 in0.0 mm 0.86 in21.8 mm
07:45 AM 58.3°F14.6°C 58.3°F14.6°C 100% Calm Calm -- 29.56 in1001.0 mb 0.00 in0.0 mm 0.00 in0.0 mm 0.86 in21.8 mm
08:00 AM 58.3°F14.6°C 58.3°F14.6°C 100% 0.2 mph NW0.3 kmh NW 1.8 mph2.9 kmh 29.56 in1001.0 mb 0.00 in0.0 mm 0.00 in0.0 mm 0.86 in21.8 mm
08:15 AM 58.1°F14.5°C 58.1°F14.5°C 100% 3.5 mph N5.6 kmh N 6.8 mph10.9 kmh 29.56 in1001.0 mb 0.00 in0.0 mm 0.00 in0.0 mm 0.86 in21.8 mm
08:31 AM 58.3°F14.6°C 58.3°F14.6°C 100% 1.6 mph N2.6 kmh N 5.7 mph9.2 kmh 29.56 in1001.0 mb 0.00 in0.0 mm 0.00 in0.0 mm 0.86 in21.8 mm
08:45 AM 58.8°F14.9°C 58.8°F14.9°C 100% 2.2 mph N3.5 kmh N 6.4 mph10.3 kmh 29.59 in1002.0 mb 0.00 in0.0 mm 0.00 in0.0 mm 0.86 in21.8 mm
09:00 AM 59.0°F15.0°C 59.0°F15.0°C 100% Calm Calm -- 29.59 in1002.0 mb 0.00 in0.0 mm 0.00 in0.0 mm 0.86 in21.8 mm
09:15 AM 59.5°F15.3°C 59.5°F15.3°C 100% 2.2 mph N3.5 kmh N 6.4 mph10.3 kmh 29.59 in1002.0 mb 0.00 in0.0 mm 0.00 in0.0 mm 0.86 in21.8 mm
09:30 AM 60.3°F15.7°C 60.3°F15.7°C 100% 1.0 mph N1.6 kmh N 4.3 mph6.9 kmh 29.59 in1002.0 mb 0.00 in0.0 mm 0.00 in0.0 mm 0.86 in21.8 mm
09:45 AM 61.0°F16.1°C 61.0°F16.1°C 100% Calm Calm 1.4 mph2.3 kmh 29.59 in1002.0 mb 0.00 in0.0 mm 0.00 in0.0 mm 0.86 in21.8 mm
10:00 AM 62.1°F16.7°C 62.1°F16.7°C 100% 1.2 mph W1.9 kmh W 5.7 mph9.2 kmh 29.59 in1002.0 mb 0.00 in0.0 mm 0.00 in0.0 mm 0.86 in21.8 mm
10:15 AM 62.6°F17.0°C 62.6°F17.0°C 100% 0.5 mph W0.8 kmh W 5.0 mph8.0 kmh 29.59 in1002.0 mb 0.00 in0.0 mm 0.00 in0.0 mm 0.86 in21.8 mm
10:30 AM 62.4°F16.9°C 61.6°F16.4°C 97% 1.0 mph WNW1.6 kmh WNW 5.7 mph9.2 kmh 29.62 in1003.0 mb 0.00 in0.0 mm 0.00 in0.0 mm 0.86 in21.8 mm
10:45 AM 61.9°F16.6°C 60.7°F15.9°C 96% 2.8 mph W4.5 kmh W 6.1 mph9.8 kmh 29.62 in1003.0 mb 0.00 in0.0 mm 0.00 in0.0 mm 0.86 in21.8 mm
11:00 AM 61.5°F16.4°C 60.4°F15.8°C 96% 2.0 mph W3.2 kmh W 9.3 mph15.0 kmh 29.62 in1003.0 mb 0.00 in0.0 mm 0.00 in0.0 mm 0.86 in21.8 mm
11:15 AM 61.3°F16.3°C 60.2°F15.7°C 96% 1.3 mph W2.1 kmh W 7.2 mph11.6 kmh 29.62 in1003.0 mb 0.00 in0.0 mm 0.00 in0.0 mm 0.86 in21.8 mm
11:30 AM 61.7°F16.5°C 60.5°F15.8°C 96% 1.3 mph W2.1 kmh W 5.0 mph8.0 kmh 29.62 in1003.0 mb 0.00 in0.0 mm 0.00 in0.0 mm 0.86 in21.8 mm
11:45 AM 62.1°F16.7°C 60.9°F16.1°C 96% 1.4 mph WNW2.3 kmh WNW 5.0 mph8.0 kmh 29.62 in1003.0 mb 0.00 in0.0 mm 0.00 in0.0 mm 0.86 in21.8 mm
12:00 PM 62.8°F17.1°C 61.3°F16.3°C 95% 2.1 mph W3.4 kmh W 6.8 mph10.9 kmh 29.59 in1002.0 mb 0.00 in0.0 mm 0.00 in0.0 mm 0.86 in21.8 mm
12:15 PM 62.6°F17.0°C 60.5°F15.8°C 93% 3.3 mph W5.3 kmh W 11.5 mph18.5 kmh 29.62 in1003.0 mb 0.00 in0.0 mm 0.00 in0.0 mm 0.86 in21.8 mm
12:30 PM 62.1°F16.7°C 59.7°F15.4°C 92% 2.4 mph WNW3.9 kmh WNW 11.5 mph18.5 kmh 29.65 in1004.1 mb 0.00 in0.0 mm 0.00 in0.0 mm 0.86 in21.8 mm
12:45 PM 61.2°F16.2°C 58.2°F14.6°C 90% 5.0 mph WNW8.0 kmh WNW 11.8 mph19.0 kmh 29.68 in1005.1 mb 0.00 in0.0 mm 0.00 in0.0 mm 0.86 in21.8 mm
01:00 PM 60.6°F15.9°C 57.7°F14.3°C 90% 3.2 mph WNW5.1 kmh WNW 13.6 mph21.9 kmh 29.68 in1005.1 mb 0.00 in0.0 mm 0.00 in0.0 mm 0.86 in21.8 mm
01:15 PM 60.6°F15.9°C 58.0°F14.4°C 91% 2.9 mph WNW4.7 kmh WNW 14.3 mph23.0 kmh 29.71 in1006.1 mb 0.00 in0.0 mm 0.00 in0.0 mm 0.86 in21.8 mm
01:30 PM 60.3°F15.7°C 57.3°F14.1°C 90% 3.9 mph WNW6.3 kmh WNW 12.9 mph20.8 kmh 29.65 in1004.1 mb 0.00 in0.0 mm 0.00 in0.0 mm 0.86 in21.8 mm
01:45 PM 60.1°F15.6°C 56.8°F13.8°C 89% 4.1 mph W6.6 kmh W 17.2 mph27.7 kmh 29.68 in1005.1 mb 0.00 in0.0 mm 0.00 in0.0 mm 0.86 in21.8 mm
02:00 PM 59.9°F15.5°C 56.3°F13.5°C 88% 3.6 mph NW5.8 kmh NW 11.8 mph19.0 kmh 29.68 in1005.1 mb 0.00 in0.0 mm 0.00 in0.0 mm 0.86 in21.8 mm
02:15 PM 60.1°F15.6°C 56.5°F13.6°C 88% 5.3 mph WNW8.5 kmh WNW 14.3 mph23.0 kmh 29.68 in1005.1 mb 0.00 in0.0 mm 0.00 in0.0 mm 0.86 in21.8 mm
02:30 PM 60.4°F15.8°C 56.6°F13.7°C 87% 6.8 mph WNW10.9 kmh WNW 15.7 mph25.3 kmh 29.68 in1005.1 mb 0.00 in0.0 mm 0.00 in0.0 mm 0.86 in21.8 mm
02:45 PM 59.7°F15.4°C 55.5°F13.1°C 86% 5.6 mph WNW9.0 kmh WNW 14.0 mph22.5 kmh 29.68 in1005.1 mb 0.00 in0.0 mm 0.00 in0.0 mm 0.86 in21.8 mm
03:00 PM 59.7°F15.4°C 55.5°F13.1°C 86% 4.3 mph WNW6.9 kmh WNW 19.7 mph31.7 kmh 29.71 in1006.1 mb 0.00 in0.0 mm 0.00 in0.0 mm 0.86 in21.8 mm
03:15 PM 60.4°F15.8°C 56.2°F13.4°C 86% 4.0 mph WNW6.4 kmh WNW 10.0 mph16.1 kmh 29.71 in1006.1 mb 0.00 in0.0 mm 0.00 in0.0 mm 0.86 in21.8 mm
03:30 PM 60.4°F15.8°C 54.9°F12.7°C 82% 6.9 mph WNW11.1 kmh WNW 17.2 mph27.7 kmh 29.71 in1006.1 mb 0.00 in0.0 mm 0.00 in0.0 mm 0.86 in21.8 mm
03:45 PM 61.3°F16.3°C 55.1°F12.8°C 80% 5.1 mph WNW8.2 kmh WNW 14.0 mph22.5 kmh 29.71 in1006.1 mb 0.00 in0.0 mm 0.00 in0.0 mm 0.86 in21.8 mm
04:00 PM 60.8°F16.0°C 52.8°F11.6°C 75% 5.6 mph NW9.0 kmh NW 12.2 mph19.6 kmh 29.74 in1007.1 mb 0.00 in0.0 mm 0.00 in0.0 mm 0.86 in21.8 mm
04:15 PM 60.8°F16.0°C 53.2°F11.8°C 76% 5.3 mph W8.5 kmh W 16.5 mph26.6 kmh 29.74 in1007.1 mb 0.00 in0.0 mm 0.00 in0.0 mm 0.86 in21.8 mm
04:31 PM 60.6°F15.9°C 53.0°F11.7°C 76% 3.8 mph NW6.1 kmh NW 7.5 mph12.1 kmh 29.74 in1007.1 mb 0.00 in0.0 mm 0.00 in0.0 mm 0.86 in21.8 mm
04:45 PM 60.3°F15.7°C 51.6°F10.9°C 73% 5.3 mph WNW8.5 kmh WNW 12.2 mph19.6 kmh 29.74 in1007.1 mb 0.00 in0.0 mm 0.00 in0.0 mm 0.86 in21.8 mm
05:00 PM 59.9°F15.5°C 50.8°F10.4°C 72% 5.5 mph WNW8.9 kmh WNW 13.6 mph21.9 kmh 29.74 in1007.1 mb 0.00 in0.0 mm 0.00 in0.0 mm 0.86 in21.8 mm
05:15 PM 59.0°F15.0°C 49.2°F9.6°C 70% 3.6 mph W5.8 kmh W 11.5 mph18.5 kmh 29.74 in1007.1 mb 0.00 in0.0 mm 0.00 in0.0 mm 0.86 in21.8 mm
05:30 PM 58.6°F14.8°C 49.3°F9.6°C 71% 3.6 mph W5.8 kmh W 8.6 mph13.8 kmh 29.77 in1008.1 mb 0.00 in0.0 mm 0.00 in0.0 mm 0.86 in21.8 mm
05:45 PM 58.1°F14.5°C 49.5°F9.7°C 73% 3.7 mph WNW6.0 kmh WNW 10.4 mph16.7 kmh 29.77 in1008.1 mb 0.00 in0.0 mm 0.00 in0.0 mm 0.86 in21.8 mm
06:00 PM 57.7°F14.3°C 49.5°F9.7°C 74% 3.3 mph WNW5.3 kmh WNW 11.8 mph19.0 kmh 29.77 in1008.1 mb 0.00 in0.0 mm 0.00 in0.0 mm 0.86 in21.8 mm
06:15 PM 57.6°F14.2°C 49.7°F9.8°C 75% 4.0 mph W6.4 kmh W 10.4 mph16.7 kmh 29.77 in1008.1 mb 0.00 in0.0 mm 0.00 in0.0 mm 0.86 in21.8 mm
06:30 PM 57.4°F14.1°C 49.9°F9.9°C 76% 3.5 mph WNW5.6 kmh WNW 10.0 mph16.1 kmh 29.80 in1009.1 mb 0.00 in0.0 mm 0.00 in0.0 mm 0.86 in21.8 mm
06:45 PM 57.2°F14.0°C 50.1°F10.1°C 77% 1.0 mph W1.6 kmh W 6.4 mph10.3 kmh 29.80 in1009.1 mb 0.00 in0.0 mm 0.00 in0.0 mm 0.86 in21.8 mm
07:00 PM 57.0°F13.9°C 50.2°F10.1°C 78% 2.2 mph W3.5 kmh W 7.9 mph12.7 kmh 29.80 in1009.1 mb 0.00 in0.0 mm 0.00 in0.0 mm 0.86 in21.8 mm
07:15 PM 56.8°F13.8°C 50.4°F10.2°C 79% 2.7 mph NW4.3 kmh NW 6.8 mph10.9 kmh 29.77 in1008.1 mb 0.00 in0.0 mm 0.00 in0.0 mm 0.86 in21.8 mm
07:30 PM 56.7°F13.7°C 50.2°F10.1°C 79% 2.4 mph W3.9 kmh W 10.0 mph16.1 kmh 29.80 in1009.1 mb 0.00 in0.0 mm 0.00 in0.0 mm 0.86 in21.8 mm
07:45 PM 56.5°F13.6°C 50.4°F10.2°C 80% 3.1 mph W5.0 kmh W 7.9 mph12.7 kmh 29.80 in1009.1 mb 0.00 in0.0 mm 0.00 in0.0 mm 0.86 in21.8 mm
08:00 PM 56.5°F13.6°C 50.4°F10.2°C 80% 3.5 mph W5.6 kmh W 6.1 mph9.8 kmh 29.80 in1009.1 mb 0.00 in0.0 mm 0.00 in0.0 mm 0.86 in21.8 mm
08:15 PM 56.3°F13.5°C 50.2°F10.1°C 80% 4.3 mph NNW6.9 kmh NNW 13.6 mph21.9 kmh 29.80 in1009.1 mb 0.00 in0.0 mm 0.00 in0.0 mm 0.86 in21.8 mm
08:30 PM 55.9°F13.3°C 50.5°F10.3°C 82% 0.1 mph NW0.2 kmh NW 1.8 mph2.9 kmh 29.83 in1010.2 mb 0.00 in0.0 mm 0.00 in0.0 mm 0.86 in21.8 mm
08:45 PM 55.6°F13.1°C 50.8°F10.4°C 84% 0.1 mph W0.2 kmh W 2.5 mph4.0 kmh 29.83 in1010.2 mb 0.00 in0.0 mm 0.00 in0.0 mm 0.86 in21.8 mm
09:00 PM 55.4°F13.0°C 51.0°F10.6°C 85% 2.1 mph NW3.4 kmh NW 6.8 mph10.9 kmh 29.83 in1010.2 mb 0.00 in0.0 mm 0.00 in0.0 mm 0.86 in21.8 mm
09:15 PM 55.4°F13.0°C 51.0°F10.6°C 85% 0.7 mph WNW1.1 kmh WNW 3.6 mph5.8 kmh 29.83 in1010.2 mb 0.00 in0.0 mm 0.00 in0.0 mm 0.86 in21.8 mm
09:30 PM 55.4°F13.0°C 51.3°F10.7°C 86% Calm Calm -- 29.83 in1010.2 mb 0.00 in0.0 mm 0.00 in0.0 mm 0.86 in21.8 mm
09:45 PM 55.4°F13.0°C 51.6°F10.9°C 87% Calm Calm -- 29.83 in1010.2 mb 0.00 in0.0 mm 0.00 in0.0 mm 0.86 in21.8 mm
10:00 PM 55.4°F13.0°C 51.9°F11.1°C 88% Calm Calm -- 29.86 in1011.2 mb 0.00 in0.0 mm 0.00 in0.0 mm 0.86 in21.8 mm
10:15 PM 55.4°F13.0°C 51.9°F11.1°C 88% 0.4 mph WSW0.6 kmh WSW 2.5 mph4.0 kmh 29.86 in1011.2 mb 0.00 in0.0 mm 0.00 in0.0 mm 0.86 in21.8 mm
10:30 PM 55.2°F12.9°C 51.7°F10.9°C 88% 3.1 mph W5.0 kmh W 6.1 mph9.8 kmh 29.86 in1011.2 mb 0.00 in0.0 mm 0.00 in0.0 mm 0.86 in21.8 mm
10:45 PM 55.4°F13.0°C 51.9°F11.1°C 88% 2.7 mph W4.3 kmh W 6.1 mph9.8 kmh 29.83 in1010.2 mb 0.00 in0.0 mm 0.00 in0.0 mm 0.86 in21.8 mm
11:00 PM 55.4°F13.0°C 51.9°F11.1°C 88% 3.6 mph W5.8 kmh W 6.8 mph10.9 kmh 29.86 in1011.2 mb 0.00 in0.0 mm 0.00 in0.0 mm 0.68 in17.3 mm
11:15 PM 55.2°F12.9°C 51.4°F10.8°C 87% 3.6 mph W5.8 kmh W 8.9 mph14.3 kmh 29.86 in1011.2 mb 0.00 in0.0 mm 0.00 in0.0 mm 0.68 in17.3 mm
11:30 PM 54.5°F12.5°C 50.1°F10.1°C 85% 2.7 mph W4.3 kmh W 8.9 mph14.3 kmh 29.86 in1011.2 mb 0.00 in0.0 mm 0.00 in0.0 mm 0.68 in17.3 mm
11:45 PM 54.3°F12.4°C 49.9°F9.9°C 85% 3.4 mph W5.5 kmh W 8.9 mph14.3 kmh 29.86 in1011.2 mb 0.00 in0.0 mm 0.00 in0.0 mm 0.68 in17.3 mm